Terminal Aerodrome Forecast
Issued by NWS Wilmington, OH

Current Version | Previous Version | Text Only | Print | Product List | Glossary Off
Versions: 1 2 3 4 5 6 7 8 9 10 11 12 13 14 15 16 17 18 19

000
FTUS41 KILN 141139
TAFDAY
TAF
KDAY 141139Z 1412/1512 34010KT P6SM BKN015
     FM141600 34006KT P6SM SCT022 BKN200
     FM150200 VRB03KT P6SM OVC150
     FM150900 20005KT P6SM BKN040=

USA.gov is the U.S. government's official web portal to all federal, state and local government web resources and services.